createdAt,value
2023-05-16T00:02:24.759Z,100467.00
2023-05-16T00:04:51.878Z,100462.88
2023-05-16T00:07:18.488Z,100467.69
2023-05-16T00:09:45.007Z,100468.94
2023-05-16T00:12:11.787Z,100469.13
2023-05-16T00:14:38.327Z,100472.94
2023-05-16T00:17:11.405Z,100471.81
2023-05-16T00:19:42.214Z,100470.88
2023-05-16T00:22:08.873Z,100481.66
2023-05-16T00:24:35.441Z,100476.06
2023-05-16T00:27:03.829Z,100470.44
2023-05-16T00:29:34.820Z,100467.09
2023-05-16T00:32:01.445Z,100471.63
2023-05-16T00:34:28.172Z,100472.50
2023-05-16T00:36:54.865Z,100466.25
2023-05-16T00:39:21.831Z,100474.16
2023-05-16T00:41:49.220Z,100470.25
2023-05-16T00:44:16.011Z,100465.78
2023-05-16T00:46:42.930Z,100471.09
2023-05-16T00:49:10.923Z,100461.88
2023-05-16T00:51:39.479Z,100465.53
2023-05-16T00:54:06.654Z,100464.16
2023-05-16T00:56:34.034Z,100453.25
2023-05-16T00:59:00.645Z,100456.22
2023-05-16T01:01:28.574Z,100466.06
2023-05-16T01:03:56.103Z,100465.84
2023-05-16T01:06:23.246Z,100464.31
2023-05-16T01:08:49.833Z,100470.44
2023-05-16T01:11:27.115Z,100468.69
2023-05-16T01:14:12.457Z,100465.38
2023-05-16T01:16:49.703Z,100466.84
2023-05-16T01:19:53.194Z,100471.47
2023-05-16T01:22:47.689Z,100469.97
2023-05-16T01:25:35.355Z,100473.88
2023-05-16T01:28:03.166Z,100461.69
2023-05-16T01:30:36.937Z,100458.59
2023-05-16T01:33:03.659Z,100452.56
2023-05-16T01:35:31.318Z,100464.06
2023-05-16T01:38:23.253Z,100461.59
2023-05-16T01:41:08.152Z,100470.28
2023-05-16T01:43:42.002Z,100470.78
2023-05-16T01:46:15.531Z,100464.81
2023-05-16T01:48:53.361Z,100469.16
2023-05-16T01:51:27.855Z,100467.91
2023-05-16T01:54:01.257Z,100471.72
2023-05-16T01:56:29.636Z,100475.84
2023-05-16T01:58:59.384Z,100475.47
2023-05-16T02:01:26.001Z,100478.97
2023-05-16T02:03:52.651Z,100486.25
2023-05-16T02:06:19.379Z,100491.69
2023-05-16T02:08:46.656Z,100494.09
2023-05-16T02:11:13.208Z,100493.25
2023-05-16T02:13:39.821Z,100497.03
2023-05-16T02:16:06.627Z,100498.75
2023-05-16T02:18:33.354Z,100495.34
2023-05-16T02:20:59.898Z,100502.56
2023-05-16T02:23:26.453Z,100503.13
2023-05-16T02:25:53.969Z,100495.25
2023-05-16T02:28:22.456Z,100492.91
2023-05-16T02:30:59.824Z,100505.50
2023-05-16T02:33:28.107Z,100514.19
2023-05-16T02:35:55.595Z,100506.84
2023-05-16T02:38:22.338Z,100500.78
2023-05-16T02:40:49.737Z,100507.63
2023-05-16T02:43:16.546Z,100506.91
2023-05-16T02:45:43.178Z,100508.94
2023-05-16T02:48:09.913Z,100517.34
2023-05-16T02:50:37.504Z,100517.66
2023-05-16T02:53:04.611Z,100523.69
2023-05-16T02:55:31.434Z,100511.88
2023-05-16T02:57:58.030Z,100512.72
2023-05-16T03:00:24.622Z,100525.66
2023-05-16T03:02:51.982Z,100532.25
2023-05-16T03:05:18.914Z,100526.31
2023-05-16T03:07:45.624Z,100533.47
2023-05-16T03:10:12.443Z,100535.31
2023-05-16T03:12:38.965Z,100538.56
2023-05-16T03:15:06.278Z,100533.94
2023-05-16T03:17:33.036Z,100534.94
2023-05-16T03:20:00.068Z,100535.59
2023-05-16T03:22:27.441Z,100535.16
2023-05-16T03:24:54.047Z,100543.72
2023-05-16T03:27:20.769Z,100544.63
2023-05-16T03:29:49.497Z,100547.56
2023-05-16T03:32:16.253Z,100548.81
2023-05-16T03:34:42.800Z,100545.75
2023-05-16T03:37:10.896Z,100542.84
2023-05-16T03:39:37.460Z,100551.19
2023-05-16T03:42:04.745Z,100552.53
2023-05-16T03:44:31.609Z,100553.75
2023-05-16T03:46:58.186Z,100560.19
2023-05-16T03:49:28.311Z,100569.31
2023-05-16T03:51:55.597Z,100565.09
2023-05-16T03:54:22.793Z,100564.50
2023-05-16T03:56:49.803Z,100566.13
2023-05-16T03:59:16.889Z,100564.91
2023-05-16T04:01:43.627Z,100580.00
2023-05-16T04:04:10.192Z,100583.81
2023-05-16T04:06:36.727Z,100592.75
2023-05-16T04:09:03.381Z,100588.66
2023-05-16T04:11:29.980Z,100592.75
2023-05-16T04:13:57.415Z,100595.53
2023-05-16T04:16:24.022Z,100591.09
2023-05-16T04:18:50.786Z,100600.53
2023-05-16T04:21:17.402Z,100604.25
2023-05-16T04:23:44.063Z,100601.13
2023-05-16T04:26:10.650Z,100599.31
2023-05-16T04:28:37.339Z,100601.06
2023-05-16T04:31:03.965Z,100599.56
2023-05-16T04:33:30.600Z,100613.16
2023-05-16T04:35:58.554Z,100612.38
2023-05-16T04:38:25.110Z,100618.72
2023-05-16T04:40:52.473Z,100621.06
2023-05-16T04:43:19.871Z,100618.25
2023-05-16T04:45:47.134Z,100622.81
2023-05-16T04:48:13.666Z,100627.69
2023-05-16T04:50:40.311Z,100622.06
2023-05-16T04:53:07.298Z,100633.50
2023-05-16T04:55:33.880Z,100623.13
2023-05-16T04:58:00.854Z,100640.81
2023-05-16T05:00:28.367Z,100639.50
2023-05-16T05:02:55.325Z,100646.41
2023-05-16T05:05:22.304Z,100640.97
2023-05-16T05:07:49.154Z,100644.22
2023-05-16T05:10:16.268Z,100653.44
2023-05-16T05:12:42.820Z,100660.00
2023-05-16T05:15:09.563Z,100650.13
2023-05-16T05:17:37.697Z,100663.84
2023-05-16T05:20:08.654Z,100656.03
2023-05-16T05:22:35.367Z,100663.66
2023-05-16T05:25:01.907Z,100668.31
2023-05-16T05:27:28.619Z,100668.59
2023-05-16T05:29:55.386Z,100675.47
2023-05-16T05:32:21.939Z,100676.72
2023-05-16T05:34:48.508Z,100683.03
2023-05-16T05:37:15.120Z,100674.63
2023-05-16T05:39:41.988Z,100683.19
2023-05-16T05:42:09.441Z,100700.47
2023-05-16T05:44:37.835Z,100691.16
2023-05-16T05:47:06.326Z,100700.19
2023-05-16T05:49:33.169Z,100704.47
2023-05-16T05:51:59.989Z,100694.72
2023-05-16T05:54:26.808Z,100700.22
2023-05-16T05:56:53.475Z,100702.59
2023-05-16T05:59:20.001Z,100710.19
2023-05-16T06:01:46.712Z,100707.78
2023-05-16T06:04:13.257Z,100709.47
2023-05-16T06:06:40.215Z,100715.97
2023-05-16T06:09:06.993Z,100716.41
2023-05-16T06:11:33.568Z,100722.66
2023-05-16T06:14:00.139Z,100730.47
2023-05-16T06:16:27.080Z,100725.25
2023-05-16T06:18:53.758Z,100731.59
2023-05-16T06:21:20.542Z,100731.06
2023-05-16T06:23:47.116Z,100740.59
2023-05-16T06:26:13.696Z,100749.66
2023-05-16T06:28:40.757Z,100748.38
2023-05-16T06:31:07.397Z,100766.81
2023-05-16T06:33:34.038Z,100771.59
2023-05-16T06:36:00.664Z,100765.88
2023-05-16T06:38:27.296Z,100767.84
2023-05-16T06:40:53.866Z,100751.75
2023-05-16T06:43:20.984Z,100755.47
2023-05-16T06:45:47.747Z,100758.47
2023-05-16T06:48:15.532Z,100768.16
2023-05-16T06:50:42.340Z,100767.94
2023-05-16T06:53:09.086Z,100782.50
2023-05-16T06:55:35.735Z,100780.41
2023-05-16T06:58:02.332Z,100773.47
2023-05-16T07:00:28.961Z,100783.88
2023-05-16T07:02:55.692Z,100775.38
2023-05-16T07:05:22.325Z,100778.91
2023-05-16T07:07:49.611Z,100783.34
2023-05-16T07:10:16.469Z,100786.41
2023-05-16T07:12:43.504Z,100776.69
2023-05-16T07:15:10.670Z,100775.16
2023-05-16T07:17:37.388Z,100781.44
2023-05-16T07:20:05.517Z,100781.72
2023-05-16T07:22:32.405Z,100784.13
2023-05-16T07:25:00.974Z,100784.59
2023-05-16T07:27:28.284Z,100781.31
2023-05-16T07:29:54.885Z,100774.31
2023-05-16T07:32:21.537Z,100772.16
2023-05-16T07:34:48.368Z,100771.16
2023-05-16T07:37:16.198Z,100763.34
2023-05-16T07:39:42.916Z,100774.22
2023-05-16T07:42:09.672Z,100789.50
2023-05-16T07:44:37.382Z,100808.34
2023-05-16T07:47:04.030Z,100801.53
2023-05-16T07:49:30.841Z,100800.63
2023-05-16T07:51:57.413Z,100797.38
2023-05-16T07:54:24.025Z,100800.13
2023-05-16T07:56:50.936Z,100801.31
2023-05-16T07:59:17.649Z,100801.00
2023-05-16T08:01:44.368Z,100802.88
2023-05-16T08:04:11.374Z,100812.97
2023-05-16T08:06:37.973Z,100813.22
2023-05-16T08:09:04.550Z,100810.56
2023-05-16T08:11:31.731Z,100812.09
2023-05-16T08:13:58.366Z,100812.44
2023-05-16T08:16:24.956Z,100805.06
2023-05-16T08:18:52.031Z,100795.25
2023-05-16T08:21:18.626Z,100799.31
2023-05-16T08:23:45.493Z,100800.94
2023-05-16T08:26:12.065Z,100809.28
2023-05-16T08:28:38.643Z,100801.09
2023-05-16T08:31:05.427Z,100800.06
2023-05-16T08:33:32.042Z,100803.00
2023-05-16T08:35:58.814Z,100790.38
2023-05-16T08:38:25.537Z,100804.28
2023-05-16T08:40:52.758Z,100803.38
2023-05-16T08:43:19.665Z,100809.16
2023-05-16T08:45:46.334Z,100798.84
2023-05-16T08:48:15.798Z,100797.25
2023-05-16T08:50:44.303Z,100796.94
2023-05-16T08:53:14.632Z,100799.91
2023-05-16T08:55:44.156Z,100804.94
2023-05-16T08:58:11.462Z,100802.09
2023-05-16T09:00:39.701Z,100805.22
2023-05-16T09:03:07.574Z,100802.97
2023-05-16T09:05:35.190Z,100803.16
2023-05-16T09:08:01.815Z,100819.28
2023-05-16T09:10:28.397Z,100807.69
2023-05-16T09:12:55.093Z,100806.72
2023-05-16T09:15:21.850Z,100803.72
2023-05-16T09:17:49.118Z,100805.91
2023-05-16T09:20:17.895Z,100808.00
2023-05-16T09:22:59.410Z,100806.56
2023-05-16T09:25:30.809Z,100809.34
2023-05-16T09:27:59.785Z,100811.56
2023-05-16T09:30:31.309Z,100810.66
2023-05-16T09:32:59.117Z,100811.47
2023-05-16T09:35:43.138Z,100818.38
2023-05-16T09:38:17.946Z,100802.94
2023-05-16T09:40:45.362Z,100806.69
2023-05-16T09:43:16.217Z,100815.91
2023-05-16T09:45:47.931Z,100813.88
2023-05-16T09:48:15.820Z,100811.75
2023-05-16T09:50:49.873Z,100804.41
2023-05-16T09:53:16.719Z,100809.38
2023-05-16T09:55:43.543Z,100820.13
2023-05-16T09:58:10.149Z,100818.63
2023-05-16T10:00:38.011Z,100823.69
2023-05-16T10:03:05.856Z,100814.66
2023-05-16T10:05:34.023Z,100817.38
2023-05-16T10:08:02.813Z,100816.56
2023-05-16T10:10:30.200Z,100820.91
2023-05-16T10:13:01.373Z,100815.00
2023-05-16T10:15:29.557Z,100806.31
2023-05-16T10:18:00.350Z,100806.31
2023-05-16T10:20:27.457Z,100794.94
2023-05-16T10:22:56.660Z,100802.84
2023-05-16T10:25:26.561Z,100805.78
2023-05-16T10:27:55.057Z,100790.75
2023-05-16T10:30:22.254Z,100791.59
2023-05-16T10:32:50.637Z,100778.78
2023-05-16T10:35:17.879Z,100782.41
2023-05-16T10:37:44.771Z,100781.78
2023-05-16T10:40:12.170Z,100793.75
2023-05-16T10:42:39.439Z,100793.97
2023-05-16T10:45:16.919Z,100783.72
2023-05-16T10:47:57.492Z,100797.34
2023-05-16T10:50:44.366Z,100814.13
2023-05-16T10:53:17.116Z,100785.34
2023-05-16T10:55:58.972Z,100786.59
2023-05-16T10:58:31.838Z,100790.78
2023-05-16T11:01:30.497Z,100791.94
2023-05-16T11:03:57.140Z,100790.69
2023-05-16T11:06:25.399Z,100791.44
2023-05-16T11:09:10.947Z,100800.34
2023-05-16T11:11:55.489Z,100807.44
2023-05-16T11:14:28.928Z,100797.25
2023-05-16T11:17:23.461Z,100805.06
2023-05-16T11:19:56.149Z,100817.66
2023-05-16T11:22:43.273Z,100819.25
2023-05-16T11:25:10.858Z,100807.47
2023-05-16T11:27:45.852Z,100818.19
2023-05-16T11:30:15.450Z,100818.53
2023-05-16T11:32:44.707Z,100820.84
2023-05-16T11:35:14.974Z,100825.91
2023-05-16T11:37:42.755Z,100826.28
2023-05-16T11:40:12.117Z,100813.06
2023-05-16T11:42:44.540Z,100840.63
2023-05-16T11:45:24.254Z,100857.81
2023-05-16T11:47:51.320Z,100852.81
2023-05-16T11:50:19.966Z,100853.25
2023-05-16T11:52:49.170Z,100851.09
2023-05-16T11:55:28.101Z,100855.09
2023-05-16T11:57:59.951Z,100850.28
2023-05-16T12:00:27.228Z,100855.03
2023-05-16T12:02:55.929Z,100844.38
2023-05-16T12:05:27.148Z,100854.75
2023-05-16T12:07:54.667Z,100850.97
2023-05-16T12:10:21.383Z,100869.63
2023-05-16T12:12:52.438Z,100853.31
2023-05-16T12:15:19.547Z,100857.38
2023-05-16T12:17:47.656Z,100843.13
2023-05-16T12:20:16.316Z,100857.25
2023-05-16T12:22:44.494Z,100862.38
2023-05-16T12:25:32.006Z,100855.34
2023-05-16T12:28:01.531Z,100855.50
2023-05-16T12:30:30.233Z,100866.44
2023-05-16T12:32:58.574Z,100857.97
2023-05-16T12:35:30.018Z,100856.16
2023-05-16T12:37:56.908Z,100850.31
2023-05-16T12:40:24.028Z,100847.28
2023-05-16T12:42:52.560Z,100865.19
2023-05-16T12:45:19.356Z,100852.13
2023-05-16T12:47:47.115Z,100858.09
2023-05-16T12:50:15.016Z,100864.38
2023-05-16T12:52:52.386Z,100868.78
2023-05-16T12:55:20.380Z,100868.59
2023-05-16T12:57:48.471Z,100871.06
2023-05-16T13:00:18.778Z,100871.16
2023-05-16T13:02:47.499Z,100877.22
2023-05-16T13:05:14.825Z,100877.34
2023-05-16T13:07:41.504Z,100880.00
2023-05-16T13:10:13.655Z,100877.50
2023-05-16T13:12:42.268Z,100882.25
2023-05-16T13:15:11.198Z,100889.16
2023-05-16T13:17:39.301Z,100882.97
2023-05-16T13:20:09.970Z,100890.63
2023-05-16T13:22:37.090Z,100895.00
2023-05-16T13:25:04.829Z,100888.00
2023-05-16T13:27:32.688Z,100895.75
2023-05-16T13:29:59.445Z,100882.28
2023-05-16T13:32:26.771Z,100885.56
2023-05-16T13:34:54.490Z,100888.44
2023-05-16T13:37:21.379Z,100882.84
2023-05-16T13:39:48.580Z,100887.97
2023-05-16T13:42:15.210Z,100888.78
2023-05-16T13:44:42.389Z,100889.91
2023-05-16T13:47:09.035Z,100894.47
2023-05-16T13:49:35.676Z,100895.00
2023-05-16T13:52:02.621Z,100896.06
2023-05-16T13:54:29.586Z,100913.25
2023-05-16T13:56:56.271Z,100914.38
2023-05-16T13:59:39.560Z,100903.88
2023-05-16T14:02:09.655Z,100899.69
2023-05-16T14:04:37.027Z,100900.41
2023-05-16T14:07:03.871Z,100895.06
2023-05-16T14:09:31.375Z,100902.47
2023-05-16T14:11:57.946Z,100904.78
2023-05-16T14:14:24.479Z,100895.09
2023-05-16T14:16:51.445Z,100899.22
2023-05-16T14:19:19.626Z,100904.06
2023-05-16T14:21:46.834Z,100915.94
2023-05-16T14:24:13.490Z,100916.53
2023-05-16T14:26:40.098Z,100913.66
2023-05-16T14:29:06.973Z,100905.97
2023-05-16T14:31:33.884Z,100902.72
2023-05-16T14:34:00.473Z,100903.28
2023-05-16T14:36:27.375Z,100906.72
2023-05-16T14:38:53.939Z,100910.16
2023-05-16T14:41:23.247Z,100907.97
2023-05-16T14:43:50.426Z,100916.13
2023-05-16T14:46:17.546Z,100910.38
2023-05-16T14:48:44.332Z,100917.88
2023-05-16T14:51:11.936Z,100918.69
2023-05-16T14:53:38.599Z,100920.94
2023-05-16T14:56:05.317Z,100913.69
2023-05-16T14:58:32.232Z,100920.97
2023-05-16T15:00:58.984Z,100919.53
2023-05-16T15:03:25.775Z,100919.06
2023-05-16T15:05:52.747Z,100918.66
2023-05-16T15:08:19.716Z,100932.34
2023-05-16T15:10:46.574Z,100924.31
2023-05-16T15:13:13.242Z,100925.41
2023-05-16T15:15:39.950Z,100931.03
2023-05-16T15:18:06.727Z,100930.47
2023-05-16T15:20:33.570Z,100940.22
2023-05-16T15:23:00.562Z,100942.41
2023-05-16T15:25:27.776Z,100940.91
2023-05-16T15:27:55.278Z,100942.75
2023-05-16T15:30:22.303Z,100935.59
2023-05-16T15:32:48.959Z,100928.38
2023-05-16T15:35:16.246Z,100929.94
2023-05-16T15:37:43.721Z,100926.41
2023-05-16T15:40:11.772Z,100927.84
2023-05-16T15:42:38.375Z,100929.13
2023-05-16T15:45:05.918Z,100924.63
2023-05-16T15:47:32.594Z,100928.66
2023-05-16T15:49:59.329Z,100931.50
2023-05-16T15:52:25.977Z,100931.53
2023-05-16T15:54:52.549Z,100927.94
2023-05-16T15:57:19.228Z,100938.69
2023-05-16T15:59:45.825Z,100944.00
2023-05-16T16:02:12.692Z,100936.91
2023-05-16T16:04:39.376Z,100936.91
2023-05-16T16:07:05.963Z,100929.25
2023-05-16T16:09:32.546Z,100933.75
2023-05-16T16:11:59.143Z,100922.97
2023-05-16T16:14:26.004Z,100934.09
2023-05-16T16:16:52.654Z,100936.91
2023-05-16T16:19:19.357Z,100934.69
2023-05-16T16:21:46.333Z,100945.63
2023-05-16T16:24:13.708Z,100952.97
2023-05-16T16:26:41.403Z,100948.97
2023-05-16T16:29:08.018Z,100945.50
2023-05-16T16:31:34.791Z,100947.03
2023-05-16T16:38:53.757Z,100950.50
2023-05-16T16:41:20.714Z,100952.53
2023-05-16T16:43:47.395Z,100959.81
2023-05-16T16:46:14.355Z,100955.09
2023-05-16T16:48:40.921Z,100954.88
2023-05-16T16:51:07.963Z,100958.47
2023-05-16T16:53:37.794Z,100952.81
2023-05-16T16:56:04.553Z,100961.31
2023-05-16T16:58:31.370Z,100950.63
2023-05-16T17:00:58.255Z,100955.81
2023-05-16T17:03:25.043Z,100950.97
2023-05-16T17:05:53.122Z,100954.13
2023-05-16T17:08:20.486Z,100969.69
2023-05-16T17:10:48.042Z,100981.00
2023-05-16T17:13:17.409Z,100981.69
2023-05-16T17:15:47.421Z,100991.59
2023-05-16T17:18:15.022Z,100982.00
2023-05-16T17:20:41.867Z,100995.56
2023-05-16T17:23:09.017Z,100991.72
2023-05-16T17:25:35.845Z,100998.84
2023-05-16T17:28:02.695Z,100990.72
2023-05-16T17:30:29.548Z,100996.44
2023-05-16T17:32:56.331Z,101002.19
2023-05-16T17:35:23.319Z,101001.63
2023-05-16T17:37:51.029Z,101006.88
2023-05-16T17:40:18.052Z,101003.47
2023-05-16T17:42:45.638Z,101010.03
2023-05-16T17:45:14.731Z,101023.13
2023-05-16T17:47:42.039Z,101018.38
2023-05-16T17:50:10.532Z,101024.88
2023-05-16T17:52:39.351Z,101024.19
2023-05-16T17:55:08.746Z,101018.56
2023-05-16T17:57:36.432Z,101021.34
2023-05-16T18:00:05.560Z,101030.03
2023-05-16T18:02:32.911Z,101035.50
2023-05-16T18:05:00.037Z,101030.50
2023-05-16T18:07:27.089Z,101032.75
2023-05-16T18:09:54.438Z,101032.13
2023-05-16T18:12:22.047Z,101036.50
2023-05-16T18:14:50.382Z,101035.47
2023-05-16T18:17:17.233Z,101035.34
2023-05-16T18:19:44.356Z,101036.47
2023-05-16T18:22:12.802Z,101036.97
2023-05-16T18:24:39.973Z,101042.19
2023-05-16T18:27:07.000Z,101039.91
2023-05-16T18:29:34.321Z,101042.47
2023-05-16T18:32:01.477Z,101043.50
2023-05-16T18:34:28.324Z,101048.06
2023-05-16T18:36:55.151Z,101047.31
2023-05-16T18:39:22.022Z,101043.63
2023-05-16T18:41:49.195Z,101052.22
2023-05-16T18:44:17.284Z,101055.38
2023-05-16T18:46:46.065Z,101053.13
2023-05-16T18:49:13.599Z,101062.53
2023-05-16T18:51:40.662Z,101052.50
2023-05-16T18:54:07.526Z,101047.47
2023-05-16T18:56:34.752Z,101050.75
2023-05-16T18:59:01.555Z,101058.25
2023-05-16T19:01:28.700Z,101058.84
2023-05-16T19:03:55.950Z,101060.94
2023-05-16T19:06:23.022Z,101067.31
2023-05-16T19:08:49.801Z,101059.06
2023-05-16T19:11:17.578Z,101067.38
2023-05-16T19:13:47.107Z,101070.28
2023-05-16T19:16:15.239Z,101072.94
2023-05-16T19:18:42.420Z,101072.50
2023-05-16T19:21:10.902Z,101072.81
2023-05-16T19:23:37.769Z,101065.88
2023-05-16T19:26:06.465Z,101078.38
2023-05-16T19:28:34.595Z,101080.44
2023-05-16T19:31:01.662Z,101081.75
2023-05-16T19:33:28.391Z,101077.88
2023-05-16T19:35:57.680Z,101088.03
2023-05-16T19:38:25.155Z,101085.88
2023-05-16T19:40:53.053Z,101083.41
2023-05-16T19:43:19.904Z,101082.44
2023-05-16T19:45:46.699Z,101074.16
2023-05-16T19:48:13.904Z,101080.50
2023-05-16T19:50:40.971Z,101077.66
2023-05-16T19:53:07.989Z,101080.75
2023-05-16T19:55:37.878Z,101077.00
2023-05-16T19:58:05.991Z,101076.53
2023-05-16T20:00:32.750Z,101085.31
2023-05-16T20:02:59.622Z,101087.81
2023-05-16T20:05:27.022Z,101091.38
2023-05-16T20:07:55.353Z,101090.28
2023-05-16T20:10:22.314Z,101089.63
2023-05-16T20:12:49.045Z,101095.50
2023-05-16T20:15:16.187Z,101087.94
2023-05-16T20:17:43.098Z,101087.41
2023-05-16T20:20:10.589Z,101092.88
2023-05-16T20:22:41.457Z,101086.75
2023-05-16T20:25:09.637Z,101083.44
2023-05-16T20:27:36.356Z,101082.00
2023-05-16T20:30:04.753Z,101082.44
2023-05-16T20:32:31.499Z,101078.81
2023-05-16T20:34:58.617Z,101074.47
2023-05-16T20:37:28.285Z,101086.81
2023-05-16T20:39:55.537Z,101083.38
2023-05-16T20:42:22.325Z,101077.41
2023-05-16T20:44:49.187Z,101084.72
2023-05-16T20:47:17.030Z,101088.00
2023-05-16T20:49:43.957Z,101090.34
2023-05-16T20:52:11.313Z,101088.56
2023-05-16T20:54:38.045Z,101079.13
2023-05-16T20:57:05.327Z,101082.75
2023-05-16T20:59:32.367Z,101095.16
2023-05-16T21:01:59.422Z,101083.34
2023-05-16T21:04:26.089Z,101077.47
2023-05-16T21:06:52.681Z,101088.38
2023-05-16T21:09:19.366Z,101085.47
2023-05-16T21:11:46.305Z,101074.47
2023-05-16T21:14:12.896Z,101078.19
2023-05-16T21:16:39.926Z,101078.06
2023-05-16T21:19:06.639Z,101070.66
2023-05-16T21:21:33.446Z,101080.06
2023-05-16T21:24:00.061Z,101078.47
2023-05-16T21:26:26.665Z,101083.22
2023-05-16T21:28:55.521Z,101082.41
2023-05-16T21:31:23.671Z,101085.38
2023-05-16T21:33:53.019Z,101084.69
2023-05-16T21:36:20.598Z,101089.19
2023-05-16T21:38:47.390Z,101093.72
2023-05-16T21:41:14.747Z,101087.09
2023-05-16T21:43:41.343Z,101091.44
2023-05-16T21:46:07.995Z,101089.47
2023-05-16T21:48:34.953Z,101084.09
2023-05-16T21:51:01.764Z,101084.84
2023-05-16T21:53:28.401Z,101087.09
2023-05-16T21:55:55.250Z,101091.69
2023-05-16T21:58:22.083Z,101085.31
2023-05-16T22:00:49.489Z,101086.44
2023-05-16T22:03:19.047Z,101085.09
2023-05-16T22:05:46.599Z,101083.94
2023-05-16T22:08:13.322Z,101083.06
2023-05-16T22:10:40.560Z,101083.44
2023-05-16T22:13:08.009Z,101086.44
2023-05-16T22:15:34.819Z,101091.19
2023-05-16T22:18:01.670Z,101088.75
2023-05-16T22:20:28.829Z,101084.44
2023-05-16T22:22:55.480Z,101086.31
2023-05-16T22:25:22.487Z,101072.38
2023-05-16T22:27:49.326Z,101078.53
2023-05-16T22:30:16.318Z,101081.47
2023-05-16T22:32:43.165Z,101087.75
2023-05-16T22:35:09.848Z,101080.50
2023-05-16T22:37:36.450Z,101087.16
2023-05-16T22:40:03.133Z,101083.72
2023-05-16T22:42:31.247Z,101087.75
2023-05-16T22:44:57.946Z,101084.44
2023-05-16T22:47:24.571Z,101076.22
2023-05-16T22:49:51.162Z,101079.78
2023-05-16T22:52:17.760Z,101082.19
2023-05-16T22:54:44.377Z,101082.38
2023-05-16T22:57:11.373Z,101080.66
2023-05-16T22:59:38.226Z,101079.78
2023-05-16T23:02:04.845Z,101083.72
2023-05-16T23:04:31.446Z,101079.63
2023-05-16T23:06:58.096Z,101089.88
2023-05-16T23:09:24.785Z,101083.72
2023-05-16T23:11:51.406Z,101091.06
2023-05-16T23:14:18.296Z,101091.00
2023-05-16T23:16:44.858Z,101091.19
2023-05-16T23:19:11.560Z,101089.50
2023-05-16T23:21:39.963Z,101087.34
2023-05-16T23:24:06.764Z,101088.88
2023-05-16T23:26:33.382Z,101098.00
2023-05-16T23:29:00.665Z,101099.72
2023-05-16T23:31:27.296Z,101099.22
2023-05-16T23:33:54.185Z,101104.97
2023-05-16T23:36:20.862Z,101100.59
2023-05-16T23:38:47.926Z,101102.19
2023-05-16T23:41:14.548Z,101109.09
2023-05-16T23:43:41.471Z,101104.06
2023-05-16T23:46:08.048Z,101107.00
2023-05-16T23:48:36.534Z,101104.25
2023-05-16T23:51:07.221Z,101106.72
2023-05-16T23:53:37.390Z,101105.88
2023-05-16T23:56:04.206Z,101102.91
2023-05-16T23:58:31.188Z,101106.69
